Time;durP1;ratioP1;P1;durP2;ratioP2;P2;SDS_P1;SDS_P2;PMS_P1;PMS_P2;Temp;Humidity;BMP_temperature;BMP_pressure;BME280_temperature;BME280_humidity;BME280_pressure;Samples;Min_cycle;Max_cycle;Signal;HPM_P1;HPM_P2
2021/12/03 00:00:12;;;;;;;;;;;-0.40;99.90;;;;;;5094033;28;19925;-78
2021/12/03 00:02:38;;;;;;;;;;;-0.50;99.90;;;;;;5093892;28;19912;-78
2021/12/03 00:05:05;;;;;;;;;;;-0.70;99.90;;;;;;5096239;28;19924;-77
2021/12/03 00:07:33;;;;;;;;;;;-0.50;99.90;;;;;;5095087;28;19947;-79
2021/12/03 00:09:59;;;;;;;;;;;-0.60;99.90;;;;;;5096784;28;19984;-78
2021/12/03 00:12:27;;;;;;;;;;;-0.60;99.90;;;;;;5097155;28;19931;-77
2021/12/03 00:14:54;;;;;;;;;;;-0.20;99.90;;;;;;5095726;28;19931;-79
2021/12/03 00:17:20;;;;;;;;;;;-0.70;99.90;;;;;;5092746;28;19935;-79
2021/12/03 00:19:46;;;;;;;;;;;-0.60;99.90;;;;;;5090169;28;20375;-79
2021/12/03 00:22:13;;;;;;;;;;;-0.70;99.90;;;;;;5092970;28;19925;-80
2021/12/03 00:24:40;;;;;;;;;;;-0.60;99.90;;;;;;5092055;28;19924;-79
2021/12/03 00:27:07;;;;;;;;;;;-0.90;99.90;;;;;;5083575;28;19925;-79
2021/12/03 00:29:35;;;;;;;;;;;-0.60;99.90;;;;;;5080451;28;19947;-80
2021/12/03 00:32:01;;;;;;;;;;;-0.40;99.90;;;;;;5078493;28;19924;-81
2021/12/03 00:34:28;;;;;;;;;;;-0.70;99.90;;;;;;5081185;28;19935;-80
2021/12/03 00:36:55;;;;;;;;;;;-0.60;99.90;;;;;;5081261;28;19924;-79
2021/12/03 00:39:22;;;;;;;;;;;-0.70;99.90;;;;;;5080740;28;19955;-81
2021/12/03 00:41:57;;;;;;;;;;;-0.70;99.90;;;;;;5111364;22;19929;-80
2021/12/03 00:44:25;;;;;;;;;;;-0.40;99.90;;;;;;5082190;28;19947;-79
2021/12/03 00:46:53;;;;;;;;;;;-0.70;99.90;;;;;;5085274;28;19956;-78
2021/12/03 00:49:19;;;;;;;;;;;-0.40;99.90;;;;;;5089014;28;19966;-78
2021/12/03 00:51:46;;;;;;;;;;;-0.60;99.90;;;;;;5089469;28;19924;-78
2021/12/03 00:54:13;;;;;;;;;;;-0.60;99.90;;;;;;5086706;28;19924;-79
2021/12/03 00:56:40;;;;;;;;;;;0.70;99.90;;;;;;5078880;28;19925;-79
2021/12/03 00:59:06;;;;;;;;;;;0.20;99.90;;;;;;5077156;28;19979;-78
2021/12/03 01:01:33;;;;;;;;;;;-0.60;99.90;;;;;;5075920;28;19964;-79
2021/12/03 01:04:01;;;;;;;;;;;-0.20;99.90;;;;;;5076794;28;19986;-79
2021/12/03 01:06:27;;;;;;;;;;;-0.60;99.90;;;;;;5076075;28;19973;-79
2021/12/03 01:08:54;;;;;;;;;;;-0.70;99.90;;;;;;5076969;28;19932;-79
2021/12/03 01:11:21;;;;;;;;;;;-0.70;99.90;;;;;;5076001;28;19960;-79
2021/12/03 01:13:48;;;;;;;;;;;-0.60;99.90;;;;;;5075737;28;19928;-79
2021/12/03 01:16:15;;;;;;;;;;;-0.70;99.90;;;;;;5075804;28;19947;-79
2021/12/03 01:18:43;;;;;;;;;;;-0.60;99.90;;;;;;5076222;28;19963;-79
2021/12/03 01:21:10;;;;;;;;;;;-0.60;99.90;;;;;;5084377;28;19924;-77
2021/12/03 01:23:37;;;;;;;;;;;-0.90;99.90;;;;;;5089248;28;19925;-78
2021/12/03 01:26:04;;;;;;;;;;;-0.60;99.90;;;;;;5086431;28;19925;-80
2021/12/03 01:28:30;;;;;;;;;;;-0.50;99.90;;;;;;5082494;28;19935;-80
2021/12/03 01:30:57;;;;;;;;;;;-0.50;99.90;;;;;;5088184;28;19925;-79
2021/12/03 01:33:24;;;;;;;;;;;-0.50;99.90;;;;;;5089249;28;19929;-78
2021/12/03 01:35:51;;;;;;;;;;;-0.50;99.90;;;;;;5091266;28;19978;-79
2021/12/03 01:38:19;;;;;;;;;;;-0.50;99.90;;;;;;5092670;28;19924;-79
2021/12/03 01:40:46;;;;;;;;;;;-0.50;99.90;;;;;;5094042;28;19912;-78
2021/12/03 01:43:23;;;;;;;;;;;-0.50;99.90;;;;;;5093824;28;19955;-80
2021/12/03 01:45:51;;;;;;;;;;;-0.60;99.90;;;;;;5093498;28;19925;-79
2021/12/03 01:48:17;;;;;;;;;;;-0.40;99.90;;;;;;5093474;28;19925;-79
2021/12/03 01:50:44;;;;;;;;;;;-0.50;99.90;;;;;;5093592;28;19924;-79
2021/12/03 01:53:12;;;;;;;;;;;-0.10;99.90;;;;;;5093449;28;19928;-78
2021/12/03 01:55:42;;;;;;;;;;;-0.70;99.90;;;;;;5093255;28;19925;-77
2021/12/03 01:58:08;;;;;;;;;;;-0.60;99.90;;;;;;5095444;28;20344;-79
2021/12/03 02:00:39;;;;;;;;;;;-0.70;99.90;;;;;;5095023;28;19931;-81
2021/12/03 02:03:06;;;;;;;;;;;-0.50;99.90;;;;;;5091796;28;19962;-79
2021/12/03 02:05:32;;;;;;;;;;;-0.20;99.90;;;;;;5095585;28;19950;-79
2021/12/03 02:07:59;;;;;;;;;;;-0.60;99.90;;;;;;5083451;28;19924;-81
2021/12/03 02:10:25;;;;;;;;;;;-0.70;99.90;;;;;;5084654;28;19925;-79
2021/12/03 02:12:55;;;;;;;;;;;-0.50;99.90;;;;;;5089737;28;19955;-79
2021/12/03 02:15:21;;;;;;;;;;;-0.60;99.90;;;;;;5093273;28;19924;-79
2021/12/03 02:17:48;;;;;;;;;;;-0.70;99.90;;;;;;5097233;28;19924;-78
2021/12/03 02:20:15;;;;;;;;;;;-0.60;99.90;;;;;;5098226;28;19935;-80
2021/12/03 02:22:43;;;;;;;;;;;-0.60;99.90;;;;;;5098284;28;19925;-79
2021/12/03 02:25:12;;;;;;;;;;;-0.80;99.90;;;;;;5093321;28;19936;-80
2021/12/03 02:27:38;;;;;;;;;;;-0.70;99.90;;;;;;5088878;28;19925;-80
2021/12/03 02:30:06;;;;;;;;;;;-0.80;99.90;;;;;;5085498;28;19939;-80
2021/12/03 02:32:32;;;;;;;;;;;-0.70;99.90;;;;;;5085078;28;19928;-80
2021/12/03 02:34:59;;;;;;;;;;;-0.80;99.90;;;;;;5084942;28;19931;-81
2021/12/03 02:37:25;;;;;;;;;;;-0.80;99.90;;;;;;5085077;28;19925;-81
2021/12/03 02:39:53;;;;;;;;;;;-0.80;99.90;;;;;;5084113;28;19929;-80
2021/12/03 02:42:19;;;;;;;;;;;-0.70;99.90;;;;;;5085106;28;19925;-80
2021/12/03 02:44:46;;;;;;;;;;;-0.70;99.90;;;;;;5093886;28;19943;-78
2021/12/03 02:47:12;;;;;;;;;;;-0.90;99.90;;;;;;5097387;28;19935;-79
2021/12/03 02:49:39;;;;;;;;;;;-0.70;99.90;;;;;;5097087;28;19950;-79
2021/12/03 02:52:06;;;;;;;;;;;-1.20;99.90;;;;;;5097638;28;19924;-80
2021/12/03 02:54:32;;;;;;;;;;;-0.80;99.90;;;;;;5097676;28;19936;-79
2021/12/03 02:57:01;;;;;;;;;;;-0.90;99.90;;;;;;5092689;28;19925;-80
2021/12/03 02:59:27;;;;;;;;;;;-0.80;99.90;;;;;;5084157;28;19924;-80
2021/12/03 03:01:53;;;;;;;;;;;-0.80;99.90;;;;;;5083558;28;19924;-80
2021/12/03 03:04:20;;;;;;;;;;;0.00;99.90;;;;;;5082954;28;19924;-81
2021/12/03 03:06:47;;;;;;;;;;;-0.70;99.90;;;;;;5083065;28;19925;-80
2021/12/03 03:09:14;;;;;;;;;;;-1.00;99.90;;;;;;5084743;28;20337;-80
2021/12/03 03:11:41;;;;;;;;;;;-0.70;99.90;;;;;;5085124;28;20286;-80
2021/12/03 03:14:09;;;;;;;;;;;-0.70;99.90;;;;;;5084936;28;19931;-80
2021/12/03 03:16:35;;;;;;;;;;;-1.40;99.90;;;;;;5086721;28;19924;-79
2021/12/03 03:19:09;;;;;;;;;;;-0.80;99.90;;;;;;5086736;28;19924;-80
2021/12/03 03:21:35;;;;;;;;;;;-0.80;99.90;;;;;;5086154;28;19932;-80
2021/12/03 03:24:02;;;;;;;;;;;-1.00;99.90;;;;;;5093380;28;19925;-79
2021/12/03 03:26:29;;;;;;;;;;;-0.80;99.90;;;;;;5087188;28;19925;-81
2021/12/03 03:28:57;;;;;;;;;;;-0.70;99.90;;;;;;5084556;28;19925;-80
2021/12/03 03:31:25;;;;;;;;;;;-0.80;99.90;;;;;;5083397;28;19931;-79
2021/12/03 03:33:51;;;;;;;;;;;-1.00;99.90;;;;;;5082599;28;20341;-79
2021/12/03 03:36:18;;;;;;;;;;;-1.00;99.90;;;;;;5081807;28;19947;-80
2021/12/03 03:38:44;;;;;;;;;;;-1.00;99.90;;;;;;5081213;28;19970;-80
2021/12/03 03:41:11;;;;;;;;;;;-0.80;99.90;;;;;;5081825;28;19933;-80
2021/12/03 03:43:37;;;;;;;;;;;-0.80;99.90;;;;;;5084696;28;19935;-79
2021/12/03 03:46:04;;;;;;;;;;;-0.80;99.90;;;;;;5092040;28;19928;-80
2021/12/03 03:48:31;;;;;;;;;;;-0.70;99.90;;;;;;5092146;28;19925;-80
2021/12/03 03:50:58;;;;;;;;;;;-0.80;99.90;;;;;;5091177;28;19931;-79
2021/12/03 03:53:25;;;;;;;;;;;-0.60;99.90;;;;;;5085308;28;19947;-78
2021/12/03 03:55:51;;;;;;;;;;;-0.80;99.90;;;;;;5090479;28;19947;-78
2021/12/03 03:58:18;;;;;;;;;;;-0.80;99.90;;;;;;5083437;28;19924;-80
2021/12/03 04:00:45;;;;;;;;;;;-0.80;99.90;;;;;;5082357;28;19925;-79
2021/12/03 04:03:12;;;;;;;;;;;-0.60;99.90;;;;;;5089693;28;19925;-79
2021/12/03 04:05:40;;;;;;;;;;;-0.80;99.90;;;;;;5090003;28;19924;-80
2021/12/03 04:08:07;;;;;;;;;;;-0.80;99.90;;;;;;5088688;28;19924;-80
2021/12/03 04:10:33;;;;;;;;;;;-1.00;99.90;;;;;;5093577;28;19924;-79
2021/12/03 04:13:00;;;;;;;;;;;-0.80;99.90;;;;;;5087128;28;19989;-81
2021/12/03 04:15:26;;;;;;;;;;;-0.90;99.90;;;;;;5088488;28;19990;-79
2021/12/03 04:17:53;;;;;;;;;;;-0.70;99.90;;;;;;5096521;28;19974;-80
2021/12/03 04:20:20;;;;;;;;;;;-1.00;99.90;;;;;;5094119;28;19924;-81
2021/12/03 04:22:48;;;;;;;;;;;-0.80;99.90;;;;;;5085127;28;19925;-80
2021/12/03 04:25:16;;;;;;;;;;;-0.80;99.90;;;;;;5087220;28;19940;-81
2021/12/03 04:27:42;;;;;;;;;;;-0.80;99.90;;;;;;5078778;28;19924;-81
2021/12/03 04:30:11;;;;;;;;;;;-0.70;99.90;;;;;;5080251;28;19962;-81
2021/12/03 04:32:38;;;;;;;;;;;-0.70;99.90;;;;;;5079293;28;20357;-79
2021/12/03 04:35:05;;;;;;;;;;;-0.80;99.90;;;;;;5080336;28;19925;-80
2021/12/03 04:37:31;;;;;;;;;;;-0.70;99.90;;;;;;5077869;28;19925;-79
2021/12/03 04:39:59;;;;;;;;;;;-0.70;99.90;;;;;;5077090;28;20361;-80
2021/12/03 04:42:26;;;;;;;;;;;-0.70;99.90;;;;;;5078072;28;20326;-79
2021/12/03 04:44:52;;;;;;;;;;;-0.70;99.90;;;;;;5077948;28;20383;-78
2021/12/03 04:47:18;;;;;;;;;;;0.80;99.90;;;;;;5078797;28;20364;-80
2021/12/03 04:49:45;;;;;;;;;;;-0.70;99.90;;;;;;5079467;28;20287;-80
2021/12/03 04:52:11;;;;;;;;;;;-0.70;99.90;;;;;;5079630;28;19924;-80
2021/12/03 04:54:38;;;;;;;;;;;-0.50;99.90;;;;;;5080462;28;19924;-80
2021/12/03 04:57:06;;;;;;;;;;;-0.70;99.90;;;;;;5080281;28;20345;-80
2021/12/03 04:59:33;;;;;;;;;;;-0.50;99.90;;;;;;5091619;28;19970;-79
2021/12/03 05:01:59;;;;;;;;;;;-0.40;99.90;;;;;;5094766;28;19925;-78
2021/12/03 05:04:26;;;;;;;;;;;-0.80;99.90;;;;;;5092527;28;19949;-79
2021/12/03 05:06:55;;;;;;;;;;;-0.80;99.90;;;;;;5093833;28;19925;-80
2021/12/03 05:09:22;;;;;;;;;;;0.00;99.90;;;;;;5091609;28;19924;-80
2021/12/03 05:11:49;;;;;;;;;;;-0.60;99.90;;;;;;5086261;28;19972;-80
2021/12/03 05:14:16;;;;;;;;;;;-0.40;99.90;;;;;;5091610;28;19947;-80
2021/12/03 05:16:45;;;;;;;;;;;-0.20;99.90;;;;;;5088907;28;19925;-80
2021/12/03 05:19:12;;;;;;;;;;;-0.20;99.90;;;;;;5086016;28;19924;-80
2021/12/03 05:21:39;;;;;;;;;;;-0.10;99.90;;;;;;5086405;28;19924;-80
2021/12/03 05:24:06;;;;;;;;;;;-0.30;99.90;;;;;;5085701;28;19978;-81
2021/12/03 05:26:32;;;;;;;;;;;-0.20;99.90;;;;;;5078798;28;19971;-78
2021/12/03 05:28:59;;;;;;;;;;;0.70;99.90;;;;;;5078398;28;19964;-78
2021/12/03 05:31:26;;;;;;;;;;;0.00;99.90;;;;;;5078902;28;19967;-80
2021/12/03 05:33:53;;;;;;;;;;;-0.20;99.90;;;;;;5079712;28;19985;-80
2021/12/03 05:36:19;;;;;;;;;;;0.10;99.90;;;;;;5079975;28;19932;-80
2021/12/03 05:38:46;;;;;;;;;;;0.40;99.90;;;;;;5079279;28;19975;-80
2021/12/03 05:41:12;;;;;;;;;;;-0.10;99.90;;;;;;5079628;28;19924;-80
2021/12/03 05:43:39;;;;;;;;;;;-0.10;99.90;;;;;;5079751;28;19924;-80
2021/12/03 05:46:05;;;;;;;;;;;-0.10;99.90;;;;;;5079434;28;19925;-80
2021/12/03 05:48:33;;;;;;;;;;;-0.10;99.90;;;;;;5082210;28;19931;-80
2021/12/03 05:51:00;;;;;;;;;;;-0.10;99.90;;;;;;5083399;28;19970;-80
2021/12/03 05:53:27;;;;;;;;;;;0.00;99.90;;;;;;5083473;28;19931;-80
2021/12/03 05:55:54;;;;;;;;;;;0.00;99.90;;;;;;5083780;28;19924;-80
2021/12/03 05:58:21;;;;;;;;;;;0.00;99.90;;;;;;5083739;28;19924;-79
2021/12/03 06:00:49;;;;;;;;;;;-0.10;99.90;;;;;;5083771;28;19978;-80
2021/12/03 06:03:16;;;;;;;;;;;-0.30;99.90;;;;;;5083248;28;19924;-80
2021/12/03 06:05:44;;;;;;;;;;;-0.10;99.90;;;;;;5082785;28;19959;-80
2021/12/03 06:08:10;;;;;;;;;;;-0.10;99.90;;;;;;5082530;28;19932;-80
2021/12/03 06:10:37;;;;;;;;;;;-0.10;99.90;;;;;;5083493;28;19929;-80
2021/12/03 06:13:04;;;;;;;;;;;-0.50;99.90;;;;;;5087437;28;19924;-80
2021/12/03 06:15:30;;;;;;;;;;;-0.10;99.90;;;;;;5095674;28;19936;-79
2021/12/03 06:17:57;;;;;;;;;;;-0.10;99.90;;;;;;5096230;28;19966;-78
2021/12/03 06:20:24;;;;;;;;;;;0.00;99.90;;;;;;5091842;28;19933;-79
2021/12/03 06:22:52;;;;;;;;;;;0.00;99.90;;;;;;5086515;28;19929;-80
2021/12/03 06:25:19;;;;;;;;;;;-0.40;99.90;;;;;;5083783;28;19951;-80
2021/12/03 06:27:45;;;;;;;;;;;0.00;99.90;;;;;;5083646;28;19950;-80
2021/12/03 06:30:13;;;;;;;;;;;0.00;99.90;;;;;;5083665;28;19931;-80
2021/12/03 06:32:40;;;;;;;;;;;0.00;99.90;;;;;;5094254;28;19947;-77
2021/12/03 06:35:08;;;;;;;;;;;-0.10;99.90;;;;;;5094379;28;19913;-80
2021/12/03 06:37:35;;;;;;;;;;;0.20;99.90;;;;;;5088442;28;19925;-80
2021/12/03 06:42:39;;;;;;;;;;;0.30;99.90;;;;;;5096128;28;19912;-79
2021/12/03 06:45:06;;;;;;;;;;;-0.20;99.90;;;;;;5094188;28;19994;-80
2021/12/03 06:47:33;;;;;;;;;;;0.30;99.90;;;;;;5082390;28;19974;-80
2021/12/03 06:49:59;;;;;;;;;;;-0.10;99.90;;;;;;5081416;28;19971;-80
2021/12/03 06:52:26;;;;;;;;;;;0.20;99.90;;;;;;5063755;28;20307;-79
2021/12/03 06:54:56;;;;;;;;;;;0.00;99.90;;;;;;5061756;28;19933;-80
2021/12/03 06:57:23;;;;;;;;;;;0.30;99.90;;;;;;5060776;28;19928;-79
2021/12/03 06:59:50;;;;;;;;;;;0.20;99.90;;;;;;5061098;28;19960;-79
2021/12/03 07:02:17;;;;;;;;;;;0.40;99.90;;;;;;5072188;28;19932;-80
2021/12/03 07:04:44;;;;;;;;;;;0.30;99.90;;;;;;5077122;28;19932;-79
2021/12/03 07:07:10;;;;;;;;;;;0.40;99.90;;;;;;5063653;28;19928;-81
2021/12/03 07:09:37;;;;;;;;;;;0.50;99.90;;;;;;5062835;28;19929;-80
2021/12/03 07:12:04;;;;;;;;;;;0.50;99.90;;;;;;5061010;28;20020;-81
2021/12/03 07:14:31;;;;;;;;;;;0.60;99.90;;;;;;5061674;28;19931;-79
2021/12/03 07:16:59;;;;;;;;;;;0.60;99.90;;;;;;5061518;28;19928;-78
2021/12/03 07:19:26;;;;;;;;;;;0.90;99.90;;;;;;5065550;28;19975;-79
2021/12/03 07:21:52;;;;;;;;;;;0.60;99.90;;;;;;5065428;28;19932;-80
2021/12/03 07:24:18;;;;;;;;;;;0.60;99.90;;;;;;5064121;28;19925;-80
2021/12/03 07:26:45;;;;;;;;;;;0.70;99.90;;;;;;5061925;28;20370;-80
2021/12/03 07:29:12;;;;;;;;;;;1.80;99.90;;;;;;5061519;28;20338;-79
2021/12/03 07:31:38;;;;;;;;;;;0.80;99.90;;;;;;5066954;28;19924;-80
2021/12/03 07:34:06;;;;;;;;;;;0.80;99.90;;;;;;5066897;28;19925;-79
2021/12/03 07:36:32;;;;;;;;;;;0.90;99.90;;;;;;5061059;28;19925;-80
2021/12/03 07:38:59;;;;;;;;;;;0.80;99.90;;;;;;5061293;28;20374;-80
2021/12/03 07:41:26;;;;;;;;;;;1.00;99.90;;;;;;5062648;28;20276;-77
2021/12/03 07:43:52;;;;;;;;;;;1.00;99.90;;;;;;5062711;28;20443;-80
2021/12/03 07:46:18;;;;;;;;;;;1.10;99.90;;;;;;5060353;28;20299;-79
2021/12/03 07:48:48;;;;;;;;;;;0.70;99.90;;;;;;5061353;28;20383;-79
2021/12/03 07:51:16;;;;;;;;;;;1.00;99.90;;;;;;5061085;28;20434;-79
2021/12/03 07:53:43;;;;;;;;;;;0.90;99.90;;;;;;5069841;28;19913;-79
2021/12/03 07:56:10;;;;;;;;;;;1.20;99.90;;;;;;5068420;28;19947;-78
2021/12/03 07:58:36;;;;;;;;;;;1.50;99.90;;;;;;5063068;28;19955;-79
2021/12/03 08:01:03;;;;;;;;;;;1.50;99.90;;;;;;5063037;28;19925;-80
2021/12/03 08:03:29;;;;;;;;;;;1.40;99.90;;;;;;5061787;28;19978;-79
2021/12/03 08:05:59;;;;;;;;;;;1.60;99.90;;;;;;5061431;28;19925;-79
2021/12/03 08:08:27;;;;;;;;;;;1.30;99.90;;;;;;5059995;28;20427;-81
2021/12/03 08:10:55;;;;;;;;;;;1.30;99.90;;;;;;5060053;28;19988;-79
2021/12/03 08:13:21;;;;;;;;;;;1.30;99.90;;;;;;5059464;28;19925;-80
2021/12/03 08:15:48;;;;;;;;;;;1.80;99.90;;;;;;5059553;28;19924;-80
2021/12/03 08:18:15;;;;;;;;;;;1.40;99.90;;;;;;5059287;28;20402;-79
2021/12/03 08:20:41;;;;;;;;;;;1.70;99.90;;;;;;5062623;28;19925;-79
2021/12/03 08:23:08;;;;;;;;;;;1.60;99.90;;;;;;5065042;28;19948;-79
2021/12/03 08:25:36;;;;;;;;;;;1.50;99.90;;;;;;5060012;28;19925;-79
2021/12/03 08:28:02;;;;;;;;;;;1.50;99.90;;;;;;5059471;28;19925;-80
2021/12/03 08:30:29;;;;;;;;;;;1.70;99.90;;;;;;5059711;28;19964;-79
2021/12/03 08:32:56;;;;;;;;;;;1.70;99.90;;;;;;5059257;28;20303;-80
2021/12/03 08:35:23;;;;;;;;;;;1.20;99.90;;;;;;5059508;28;19932;-78
2021/12/03 08:37:50;;;;;;;;;;;0.70;99.90;;;;;;5062605;28;19925;-79
2021/12/03 08:40:18;;;;;;;;;;;1.50;99.90;;;;;;5059706;28;19924;-79
2021/12/03 08:42:46;;;;;;;;;;;1.60;99.90;;;;;;5058987;28;19947;-80
2021/12/03 08:45:13;;;;;;;;;;;1.60;99.90;;;;;;5059928;28;19925;-78
2021/12/03 08:47:40;;;;;;;;;;;1.40;99.90;;;;;;5064799;28;19972;-79
2021/12/03 08:50:12;;;;;;;;;;;1.80;99.90;;;;;;5063583;28;19951;-80
2021/12/03 08:53:10;;;;;;;;;;;1.70;99.90;;;;;;5064031;28;19925;-79
2021/12/03 08:55:38;;;;;;;;;;;1.80;99.90;;;;;;5076889;28;19929;-80
2021/12/03 08:58:06;;;;;;;;;;;1.70;99.90;;;;;;5076205;28;19951;-81
2021/12/03 09:00:33;;;;;;;;;;;1.80;99.90;;;;;;5062402;28;19974;-81
2021/12/03 09:03:00;;;;;;;;;;;1.60;99.90;;;;;;5073327;28;19935;-80
2021/12/03 09:05:29;;;;;;;;;;;1.50;99.90;;;;;;5075650;28;19940;-80
2021/12/03 09:07:56;;;;;;;;;;;2.00;99.90;;;;;;5068440;28;19931;-79
2021/12/03 09:10:22;;;;;;;;;;;2.10;99.90;;;;;;5070156;28;19931;-78
2021/12/03 09:12:49;;;;;;;;;;;1.90;99.90;;;;;;5072594;28;19937;-79
2021/12/03 09:15:20;;;;;;;;;;;2.10;99.90;;;;;;5071321;28;19932;-79
2021/12/03 09:17:58;;;;;;;;;;;1.80;99.90;;;;;;5070320;28;19935;-80
2021/12/03 09:20:36;;;;;;;;;;;2.20;99.90;;;;;;5065752;28;19913;-80
2021/12/03 09:23:05;;;;;;;;;;;2.20;99.90;;;;;;5060858;28;19936;-80
2021/12/03 09:25:34;;;;;;;;;;;2.20;99.90;;;;;;5060661;28;20280;-79
2021/12/03 09:28:03;;;;;;;;;;;2.30;99.90;;;;;;5060187;28;19951;-79
2021/12/03 09:30:36;;;;;;;;;;;2.40;99.90;;;;;;5061573;28;19924;-79
2021/12/03 09:33:03;;;;;;;;;;;2.20;99.90;;;;;;5059742;28;20445;-78
2021/12/03 09:35:30;;;;;;;;;;;2.20;99.90;;;;;;5059865;28;20417;-80
2021/12/03 09:37:57;;;;;;;;;;;2.50;99.90;;;;;;5059819;28;20360;-79
2021/12/03 09:40:29;;;;;;;;;;;2.40;99.90;;;;;;5059405;28;20367;-80
2021/12/03 09:42:55;;;;;;;;;;;2.20;99.90;;;;;;5059541;28;19925;-80
2021/12/03 09:45:22;;;;;;;;;;;2.40;99.90;;;;;;5059154;28;20038;-79
2021/12/03 09:47:51;;;;;;;;;;;2.50;99.90;;;;;;5059296;28;19924;-79
2021/12/03 09:50:18;;;;;;;;;;;2.70;99.90;;;;;;5058838;28;19943;-79
2021/12/03 09:52:57;;;;;;;;;;;2.70;99.90;;;;;;5059667;28;19933;-79
2021/12/03 09:55:24;;;;;;;;;;;2.70;99.90;;;;;;5061745;28;19929;-79
2021/12/03 09:58:02;;;;;;;;;;;2.70;99.90;;;;;;5061464;28;19932;-78
2021/12/03 10:00:34;;;;;;;;;;;2.60;99.90;;;;;;5060731;28;20391;-79
2021/12/03 10:03:10;;;;;;;;;;;2.70;99.90;;;;;;5061456;28;19925;-79
2021/12/03 10:14:12;;;;;;;;;;;2.80;99.90;;;;;;5061932;28;19921;-80
2021/12/03 10:16:53;;;;;;;;;;;2.90;99.90;;;;;;5062858;28;19931;-80
2021/12/03 10:19:31;;;;;;;;;;;2.80;99.90;;;;;;5062396;28;19948;-79
2021/12/03 10:25:07;;;;;;;;;;;2.90;99.90;;;;;;5070681;28;19912;-80
2021/12/03 10:28:03;;;;;;;;;;;3.10;99.90;;;;;;5070841;28;20395;-78
2021/12/03 10:30:52;;;;;;;;;;;3.20;99.90;;;;;;5069390;28;19925;-79
2021/12/03 10:36:31;;;;;;;;;;;3.20;99.90;;;;;;5073326;28;19931;-79
2021/12/03 10:39:12;;;;;;;;;;;3.20;99.90;;;;;;5073232;28;19925;-81
2021/12/03 10:41:51;;;;;;;;;;;3.20;99.90;;;;;;5073725;28;20027;-79
2021/12/03 10:44:31;;;;;;;;;;;3.30;99.90;;;;;;5074721;28;19971;-77
2021/12/03 10:47:10;;;;;;;;;;;3.10;99.90;;;;;;5073289;28;19971;-78
2021/12/03 10:52:28;;;;;;;;;;;3.30;99.90;;;;;;5066893;28;19921;-78
2021/12/03 10:58:25;;;;;;;;;;;3.90;99.90;;;;;;5049812;28;20396;-79
2021/12/03 11:07:16;;;;;;;;;;;3.20;99.90;;;;;;5075890;28;19928;-78
2021/12/03 11:29:32;;;;;;;;;;;3.30;99.90;;;;;;5071623;28;19924;-80
2021/12/03 11:35:33;;;;;;;;;;;3.30;99.90;;;;;;5071881;28;19999;-82
2021/12/03 11:38:29;;;;;;;;;;;3.30;99.90;;;;;;5068049;28;19957;-80
2021/12/03 12:05:00;;;;;;;;;;;3.90;99.90;;;;;;5069586;28;19976;-79
2021/12/03 13:16:00;;;;;;;;;;;3.10;99.90;;;;;;4983266;28;19922;-79
2021/12/03 13:18:50;;;;;;;;;;;3.10;99.90;;;;;;5038511;28;20404;-80
2021/12/03 13:21:52;;;;;;;;;;;3.10;99.90;;;;;;5038386;28;19936;-80
2021/12/03 13:25:02;;;;;;;;;;;3.10;99.90;;;;;;5038518;28;19925;-79
2021/12/03 14:01:15;;;;;;;;;;;3.00;99.90;;;;;;5036420;28;20028;-80
2021/12/03 14:37:12;;;;;;;;;;;2.70;99.90;;;;;;5040709;28;19921;-80
2021/12/03 14:39:47;;;;;;;;;;;2.70;99.90;;;;;;5047396;28;19931;-79
2021/12/03 14:45:08;;;;;;;;;;;2.60;99.90;;;;;;5044346;28;19921;-79
2021/12/03 14:53:14;;;;;;;;;;;2.70;99.90;;;;;;5010512;28;19952;-80
2021/12/03 14:55:43;;;;;;;;;;;2.80;99.90;;;;;;5041276;28;19924;-79
2021/12/03 14:58:13;;;;;;;;;;;2.90;99.90;;;;;;5041102;28;20410;-80
2021/12/03 15:00:49;;;;;;;;;;;2.70;99.90;;;;;;5040799;28;20031;-79
2021/12/03 15:03:30;;;;;;;;;;;2.60;99.90;;;;;;5040593;28;20019;-80
2021/12/03 15:06:18;;;;;;;;;;;2.50;99.90;;;;;;5041154;28;20316;-80
2021/12/03 15:08:52;;;;;;;;;;;2.60;99.90;;;;;;5040712;28;19952;-80
2021/12/03 15:22:43;;;;;;;;;;;2.70;99.90;;;;;;5042440;28;20369;-79
2021/12/03 15:25:14;;;;;;;;;;;2.60;99.90;;;;;;5042741;28;20019;-79
2021/12/03 15:33:08;;;;;;;;;;;2.80;99.90;;;;;;5043496;28;20403;-80
2021/12/03 15:35:47;;;;;;;;;;;2.70;99.90;;;;;;5039938;28;20292;-79
2021/12/03 15:57:59;;;;;;;;;;;2.60;99.90;;;;;;4985952;28;19973;-79
2021/12/03 16:03:31;;;;;;;;;;;2.40;99.90;;;;;;5042119;28;20024;-79
2021/12/03 16:06:18;;;;;;;;;;;2.60;99.90;;;;;;5025776;28;19925;-79
2021/12/03 16:08:48;;;;;;;;;;;2.50;99.90;;;;;;5048163;28;20342;-79
2021/12/03 16:11:22;;;;;;;;;;;2.60;99.90;;;;;;5047803;28;19978;-79
2021/12/03 16:13:52;;;;;;;;;;;3.90;99.90;;;;;;5049417;28;20004;-79
2021/12/03 16:25:18;;;;;;;;;;;2.30;99.90;;;;;;5035629;28;19948;-79
2021/12/03 16:44:35;;;;;;;;;;;2.40;99.90;;;;;;5040472;28;20359;-79
2021/12/03 16:47:08;;;;;;;;;;;2.30;99.90;;;;;;5043172;28;19968;-80
2021/12/03 16:52:30;;;;;;;;;;;2.60;99.90;;;;;;5012789;28;19928;-80
2021/12/03 16:54:57;;;;;;;;;;;2.30;99.90;;;;;;5043381;28;19925;-81
2021/12/03 16:57:29;;;;;;;;;;;1.90;99.90;;;;;;5042085;28;20104;-83
2021/12/03 16:59:57;;;;;;;;;;;2.40;99.90;;;;;;5040762;28;20376;-79
2021/12/03 17:02:31;;;;;;;;;;;2.70;99.90;;;;;;5038808;28;20382;-80
2021/12/03 17:08:19;;;;;;;;;;;2.50;99.90;;;;;;5033019;28;20012;-79
2021/12/03 17:13:56;;;;;;;;;;;2.70;99.90;;;;;;5044515;28;19936;-81
2021/12/03 17:16:39;;;;;;;;;;;2.20;99.90;;;;;;5050562;28;20387;-79
2021/12/03 17:19:53;;;;;;;;;;;2.50;99.90;;;;;;5051765;28;19920;-80
2021/12/03 17:22:45;;;;;;;;;;;2.40;99.90;;;;;;5048645;28;19929;-79
2021/12/03 17:25:42;;;;;;;;;;;2.40;99.90;;;;;;5058054;28;19917;-81
2021/12/03 17:31:42;;;;;;;;;;;2.40;99.90;;;;;;4980532;28;19929;-81
2021/12/03 17:48:11;;;;;;;;;;;2.50;99.90;;;;;;5048732;28;19967;-79
2021/12/03 17:50:47;;;;;;;;;;;1.70;99.90;;;;;;5045720;28;19925;-80
2021/12/03 17:53:42;;;;;;;;;;;2.40;99.90;;;;;;5044595;28;19925;-81
2021/12/03 17:56:12;;;;;;;;;;;2.50;99.90;;;;;;5043206;28;19943;-82
2021/12/03 17:58:41;;;;;;;;;;;2.50;99.90;;;;;;5042535;28;19925;-80
2021/12/03 18:01:11;;;;;;;;;;;2.50;99.90;;;;;;5041081;28;19929;-79
2021/12/03 18:03:47;;;;;;;;;;;2.60;99.90;;;;;;5040957;28;19925;-79
2021/12/03 18:09:09;;;;;;;;;;;2.40;99.90;;;;;;5039812;28;19935;-79
2021/12/03 18:44:53;;;;;;;;;;;1.70;99.90;;;;;;5090148;28;19973;-82
2021/12/03 18:47:48;;;;;;;;;;;;;;;;;;5099960;28;19912;-83
2021/12/03 18:50:46;;;;;;;;;;;2.40;99.90;;;;;;5090124;28;19950;-82
2021/12/03 18:56:17;;;;;;;;;;;1.90;99.90;;;;;;5037871;28;19926;-82
2021/12/03 18:58:44;;;;;;;;;;;2.30;99.90;;;;;;5025594;28;19964;-83
2021/12/03 19:01:12;;;;;;;;;;;2.40;99.90;;;;;;5053957;28;19935;-81
2021/12/03 19:03:51;;;;;;;;;;;2.30;99.90;;;;;;5084756;28;19931;-81
2021/12/03 19:06:22;;;;;;;;;;;2.30;99.90;;;;;;5086803;28;19924;-82
2021/12/03 19:08:51;;;;;;;;;;;2.30;99.90;;;;;;5089036;28;19924;-82
2021/12/03 19:11:22;;;;;;;;;;;1.90;99.90;;;;;;5087864;28;19931;-82
2021/12/03 19:13:49;;;;;;;;;;;2.00;99.90;;;;;;5099074;28;19931;-81
2021/12/03 19:16:16;;;;;;;;;;;2.20;99.90;;;;;;5097226;28;19946;-83
2021/12/03 19:18:45;;;;;;;;;;;1.90;99.90;;;;;;5091047;28;19932;-83
2021/12/03 19:21:15;;;;;;;;;;;2.20;99.90;;;;;;5091115;28;19924;-82
2021/12/03 19:23:41;;;;;;;;;;;1.80;99.90;;;;;;5091035;28;19924;-82
2021/12/03 19:26:19;;;;;;;;;;;1.90;99.90;;;;;;5089334;28;19924;-82
2021/12/03 19:28:45;;;;;;;;;;;1.30;99.90;;;;;;5087054;28;19931;-83
2021/12/03 19:31:11;;;;;;;;;;;2.30;99.90;;;;;;5087111;28;20349;-83
2021/12/03 19:33:40;;;;;;;;;;;2.00;99.90;;;;;;5085464;28;19924;-82
2021/12/03 19:36:06;;;;;;;;;;;2.30;99.90;;;;;;5089183;28;19930;-82
2021/12/03 19:38:36;;;;;;;;;;;1.40;99.90;;;;;;5088586;28;20391;-82
2021/12/03 19:41:10;;;;;;;;;;;2.40;99.90;;;;;;5084601;28;19924;-84
2021/12/03 19:43:42;;;;;;;;;;;2.40;99.90;;;;;;5085568;28;19924;-81
2021/12/03 19:46:13;;;;;;;;;;;2.30;99.90;;;;;;5084967;28;19931;-83
2021/12/03 19:48:42;;;;;;;;;;;2.10;99.90;;;;;;5088451;28;19924;-81
2021/12/03 19:51:13;;;;;;;;;;;2.50;99.90;;;;;;5086081;28;19924;-82
2021/12/03 19:53:48;;;;;;;;;;;2.50;99.90;;;;;;5084827;28;19947;-82
2021/12/03 19:56:14;;;;;;;;;;;2.20;99.90;;;;;;5084529;28;20023;-83
2021/12/03 19:58:42;;;;;;;;;;;2.30;99.90;;;;;;5086508;28;20387;-83
2021/12/03 20:01:09;;;;;;;;;;;2.50;99.90;;;;;;5084965;28;19951;-83
2021/12/03 20:03:36;;;;;;;;;;;2.50;99.90;;;;;;5085541;28;19929;-84
2021/12/03 20:06:03;;;;;;;;;;;2.60;99.90;;;;;;5087333;28;19935;-84
2021/12/03 20:08:30;;;;;;;;;;;2.50;99.90;;;;;;5089373;28;19925;-80
2021/12/03 20:11:01;;;;;;;;;;;2.50;99.90;;;;;;5086157;28;19963;-83
2021/12/03 20:13:27;;;;;;;;;;;3.30;99.90;;;;;;5087449;28;19925;-83
2021/12/03 20:16:05;;;;;;;;;;;2.50;99.90;;;;;;5089553;28;19925;-82
2021/12/03 20:18:36;;;;;;;;;;;2.20;99.90;;;;;;5087907;28;19924;-82
2021/12/03 20:21:05;;;;;;;;;;;2.90;99.90;;;;;;5087001;28;19925;-83
2021/12/03 20:23:36;;;;;;;;;;;2.40;99.90;;;;;;5087054;28;19924;-82
2021/12/03 20:26:22;;;;;;;;;;;2.50;99.90;;;;;;5086612;28;19931;-83
2021/12/03 20:28:52;;;;;;;;;;;2.30;99.90;;;;;;5088171;28;19947;-82
2021/12/03 20:31:24;;;;;;;;;;;3.00;99.90;;;;;;5090602;28;19924;-83